createdAt,value
2018-04-22T00:01:46.474Z,13.30
2018-04-22T00:04:14.812Z,13.30
2018-04-22T00:06:42.987Z,13.20
2018-04-22T00:09:11.191Z,13.00
2018-04-22T00:11:39.374Z,13.10
2018-04-22T00:14:08.372Z,13.00
2018-04-22T00:16:37.315Z,12.90
2018-04-22T00:19:05.628Z,12.90
2018-04-22T00:21:33.812Z,12.90
2018-04-22T00:24:02.054Z,12.80
2018-04-22T00:26:30.215Z,12.70
2018-04-22T00:28:58.430Z,12.90
2018-04-22T00:31:26.616Z,12.70
2018-04-22T00:33:54.949Z,12.70
2018-04-22T00:36:23.161Z,12.60
2018-04-22T00:38:51.432Z,12.60
2018-04-22T00:41:19.613Z,12.60
2018-04-22T00:43:47.974Z,12.60
2018-04-22T00:46:16.172Z,12.60
2018-04-22T00:48:45.219Z,12.40
2018-04-22T00:51:13.401Z,12.40
2018-04-22T00:53:53.543Z,12.40
2018-04-22T00:56:21.715Z,12.30
2018-04-22T00:58:49.905Z,12.40
2018-04-22T01:01:18.092Z,12.60
2018-04-22T01:03:46.464Z,12.50
2018-04-22T01:06:14.643Z,12.20
2018-04-22T01:08:42.943Z,12.10
2018-04-22T01:11:11.114Z,12.20
2018-04-22T01:13:39.376Z,12.20
2018-04-22T01:16:07.581Z,12.10
2018-04-22T01:18:36.554Z,11.80
2018-04-22T01:21:04.743Z,11.80
2018-04-22T01:23:32.984Z,11.60
2018-04-22T01:26:01.200Z,11.90
2018-04-22T01:28:30.154Z,12.20
2018-04-22T01:30:58.392Z,12.20
2018-04-22T01:33:26.597Z,12.00
2018-04-22T01:35:54.830Z,12.00
2018-04-22T01:38:23.775Z,11.90
2018-04-22T01:40:52.017Z,11.90
2018-04-22T01:43:20.378Z,12.00
2018-04-22T01:45:48.581Z,12.00
2018-04-22T01:48:16.759Z,11.60
2018-04-22T01:50:44.975Z,11.80
2018-04-22T01:53:13.194Z,11.70
2018-04-22T01:55:41.408Z,11.50
2018-04-22T01:58:09.725Z,11.70
2018-04-22T02:00:37.941Z,11.90
2018-04-22T02:03:06.194Z,11.70
2018-04-22T02:05:34.399Z,11.80
2018-04-22T02:08:02.591Z,11.90
2018-04-22T02:10:30.809Z,11.70
2018-04-22T02:12:59.107Z,11.80
2018-04-22T02:15:27.326Z,11.80
2018-04-22T02:17:55.514Z,11.60
2018-04-22T02:20:23.728Z,11.30
2018-04-22T02:22:52.195Z,11.40
2018-04-22T02:25:20.404Z,11.40
2018-04-22T02:27:48.579Z,11.60
2018-04-22T02:30:16.768Z,11.60
2018-04-22T02:32:45.040Z,11.30
2018-04-22T02:35:13.233Z,11.20
2018-04-22T02:37:41.460Z,11.10
2018-04-22T02:40:09.649Z,11.20
2018-04-22T02:42:37.939Z,11.20
2018-04-22T02:45:06.119Z,11.20
2018-04-22T02:47:34.331Z,11.20
2018-04-22T02:50:02.524Z,11.30
2018-04-22T02:52:30.733Z,11.30
2018-04-22T02:54:58.930Z,11.20
2018-04-22T02:57:27.215Z,11.10
2018-04-22T02:59:56.171Z,11.10
2018-04-22T03:02:24.460Z,11.10
2018-04-22T03:04:52.651Z,11.00
2018-04-22T03:07:20.880Z,10.90
2018-04-22T03:09:49.084Z,10.80
2018-04-22T03:12:18.812Z,10.80
2018-04-22T03:14:47.768Z,11.00
2018-04-22T03:17:15.974Z,11.00
2018-04-22T03:19:44.251Z,10.90
2018-04-22T03:22:12.477Z,10.80
2018-04-22T03:24:40.643Z,10.70
2018-04-22T03:27:08.853Z,10.90
2018-04-22T03:29:37.040Z,10.70
2018-04-22T03:32:05.294Z,10.40
2018-04-22T03:34:33.475Z,10.60
2018-04-22T03:37:01.684Z,10.40
2018-04-22T03:39:29.868Z,10.60
2018-04-22T03:41:58.216Z,10.70
2018-04-22T03:44:26.403Z,10.70
2018-04-22T03:46:54.615Z,10.40
2018-04-22T03:49:22.823Z,10.40
2018-04-22T03:51:51.088Z,10.30
2018-04-22T03:54:19.303Z,10.50
2018-04-22T03:56:47.483Z,10.50
2018-04-22T03:59:15.698Z,10.50
2018-04-22T04:01:43.938Z,10.50
2018-04-22T04:04:13.025Z,10.10
2018-04-22T04:06:41.198Z,10.10
2018-04-22T04:09:09.394Z,10.40
2018-04-22T04:11:37.708Z,10.40
2018-04-22T04:14:05.929Z,10.50
2018-04-22T04:16:34.114Z,10.40
2018-04-22T04:19:15.031Z,10.40
2018-04-22T04:21:55.367Z,10.30
2018-04-22T04:24:35.577Z,10.40
2018-04-22T04:30:06.247Z,10.30
2018-04-22T04:32:34.474Z,10.30
2018-04-22T04:35:02.690Z,10.30
2018-04-22T04:37:30.885Z,10.20
2018-04-22T04:39:59.880Z,10.20
2018-04-22T04:42:28.088Z,10.20
2018-04-22T04:44:56.302Z,10.30
2018-04-22T04:47:24.483Z,10.20
2018-04-22T04:49:52.684Z,10.30
2018-04-22T04:52:21.242Z,10.30
2018-04-22T04:54:49.456Z,10.20
2018-04-22T04:57:17.691Z,10.40
2018-04-22T04:59:45.894Z,10.40
2018-04-22T05:02:14.700Z,10.40
2018-04-22T05:04:42.902Z,10.50
2018-04-22T05:07:11.105Z,10.50
2018-04-22T05:09:40.894Z,10.40
2018-04-22T05:12:09.144Z,10.40
2018-04-22T05:14:37.359Z,10.40
2018-04-22T05:17:05.539Z,10.60
2018-04-22T05:19:34.533Z,10.80
2018-04-22T05:22:02.763Z,10.80
2018-04-22T05:24:30.967Z,10.70
2018-04-22T05:26:59.133Z,10.60
2018-04-22T05:29:27.355Z,10.70
2018-04-22T05:31:55.660Z,10.70
2018-04-22T05:34:23.865Z,10.70
2018-04-22T05:36:52.043Z,10.80
2018-04-22T05:39:20.251Z,10.90
2018-04-22T05:41:48.731Z,11.10
2018-04-22T05:44:16.922Z,11.30
2018-04-22T05:46:45.884Z,11.50
2018-04-22T05:49:14.105Z,11.50
2018-04-22T05:51:42.429Z,11.60
2018-04-22T05:54:10.597Z,11.60
2018-04-22T05:56:38.807Z,11.70
2018-04-22T05:59:07.064Z,11.80
2018-04-22T06:01:35.550Z,12.00
2018-04-22T06:04:03.722Z,11.90
2018-04-22T06:06:32.708Z,12.10
2018-04-22T06:09:00.888Z,12.10
2018-04-22T06:11:29.131Z,12.20
2018-04-22T06:13:57.329Z,12.30
2018-04-22T06:16:25.532Z,12.50
2018-04-22T06:18:54.470Z,12.90
2018-04-22T06:21:22.784Z,12.90
2018-04-22T06:23:51.220Z,13.00
2018-04-22T06:26:19.432Z,13.10
2018-04-22T06:28:47.615Z,13.40
2018-04-22T06:31:16.616Z,13.90
2018-04-22T06:33:45.598Z,14.00
2018-04-22T06:36:15.433Z,14.00
2018-04-22T06:38:44.384Z,14.30
2018-04-22T06:41:12.656Z,14.30
2018-04-22T06:43:40.843Z,14.40
2018-04-22T06:46:09.095Z,14.60
2018-04-22T06:48:37.251Z,14.80
2018-04-22T06:51:05.663Z,14.90
2018-04-22T06:53:33.873Z,15.20
2018-04-22T06:56:02.081Z,15.50
2018-04-22T06:58:30.284Z,15.80
2018-04-22T07:00:58.563Z,16.00
2018-04-22T07:03:26.761Z,16.20
2018-04-22T07:05:55.756Z,16.50
2018-04-22T07:08:23.932Z,16.50
2018-04-22T07:10:53.224Z,16.70
2018-04-22T07:13:22.211Z,17.00
2018-04-22T07:15:50.410Z,17.00
2018-04-22T07:18:19.372Z,17.10
2018-04-22T07:20:47.627Z,17.10
2018-04-22T07:23:15.852Z,17.00
2018-04-22T07:25:44.807Z,17.50
2018-04-22T07:28:13.014Z,17.50
2018-04-22T07:30:41.300Z,17.70
2018-04-22T07:33:10.281Z,18.10
2018-04-22T07:35:38.553Z,18.10
2018-04-22T07:38:06.763Z,18.30
2018-04-22T07:40:34.948Z,18.50
2018-04-22T07:43:03.152Z,18.60
2018-04-22T07:45:31.315Z,18.80
2018-04-22T07:47:59.517Z,19.00
2018-04-22T07:50:27.701Z,19.10
2018-04-22T07:52:55.886Z,19.20
2018-04-22T07:55:24.830Z,19.30
2018-04-22T07:57:53.032Z,19.30
2018-04-22T08:00:21.234Z,19.50
2018-04-22T08:02:49.462Z,19.70
2018-04-22T08:05:17.626Z,19.60
2018-04-22T08:07:45.825Z,19.80
2018-04-22T08:10:14.172Z,19.90
2018-04-22T08:12:42.393Z,20.10
2018-04-22T08:15:10.571Z,20.60
2018-04-22T08:17:39.555Z,20.80
2018-04-22T08:20:08.552Z,20.60
2018-04-22T08:22:36.756Z,20.60
2018-04-22T08:25:04.963Z,20.60
2018-04-22T08:27:33.168Z,20.60
2018-04-22T08:30:02.963Z,20.70
2018-04-22T08:32:35.149Z,20.90
2018-04-22T08:35:03.328Z,23.10
2018-04-22T08:37:31.531Z,21.50
2018-04-22T08:39:59.740Z,21.30
2018-04-22T08:42:27.915Z,21.30
2018-04-22T08:44:56.115Z,21.40
2018-04-22T08:47:24.292Z,21.50
2018-04-22T08:49:53.262Z,21.30
2018-04-22T08:52:21.443Z,21.30
2018-04-22T08:54:49.691Z,21.30
2018-04-22T08:57:17.888Z,21.50
2018-04-22T08:59:46.243Z,21.80
2018-04-22T09:02:14.422Z,21.80
2018-04-22T09:04:42.622Z,22.00
2018-04-22T09:07:11.590Z,22.30
2018-04-22T09:09:39.891Z,22.20
2018-04-22T09:12:08.856Z,22.40
2018-04-22T09:14:37.060Z,22.40
2018-04-22T09:17:05.450Z,22.40
2018-04-22T09:19:33.880Z,22.60
2018-04-22T09:22:02.059Z,22.70
2018-04-22T09:24:30.272Z,22.70
2018-04-22T09:26:58.430Z,22.80
2018-04-22T09:29:27.407Z,23.00
2018-04-22T09:31:55.585Z,23.00
2018-04-22T09:34:23.766Z,23.20
2018-04-22T09:36:51.948Z,23.30
2018-04-22T09:39:20.195Z,23.40
2018-04-22T09:41:48.375Z,23.50
2018-04-22T09:44:16.730Z,23.50
2018-04-22T09:46:44.939Z,23.60
2018-04-22T09:49:13.150Z,23.60
2018-04-22T09:51:41.348Z,23.80
2018-04-22T09:54:09.555Z,23.90
2018-04-22T09:56:37.780Z,24.00
2018-04-22T09:59:05.983Z,24.00
2018-04-22T10:01:37.053Z,24.10
2018-04-22T10:04:10.839Z,24.20
2018-04-22T10:06:39.063Z,24.20
2018-04-22T10:09:07.364Z,24.60
2018-04-22T10:11:35.574Z,24.70
2018-04-22T10:14:04.530Z,24.80
2018-04-22T10:16:32.787Z,24.80
2018-04-22T10:19:01.087Z,24.80
2018-04-22T10:21:29.655Z,24.90
2018-04-22T10:23:57.824Z,24.90
2018-04-22T10:26:26.366Z,24.90
2018-04-22T10:28:58.066Z,25.00
2018-04-22T10:31:26.397Z,25.00
2018-04-22T10:33:54.603Z,25.20
2018-04-22T10:36:22.934Z,25.30
2018-04-22T10:38:51.160Z,25.30
2018-04-22T10:41:19.357Z,25.60
2018-04-22T10:43:47.543Z,25.50
2018-04-22T10:46:15.764Z,25.60
2018-04-22T10:48:44.816Z,25.80
2018-04-22T10:51:13.006Z,25.80
2018-04-22T10:53:41.966Z,26.10
2018-04-22T10:56:10.167Z,26.10
2018-04-22T10:58:38.419Z,26.30
2018-04-22T11:01:06.848Z,26.30
2018-04-22T11:03:35.400Z,26.40
2018-04-22T11:06:03.882Z,26.50
2018-04-22T11:08:32.624Z,26.40
2018-04-22T11:11:00.951Z,26.40
2018-04-22T11:13:29.276Z,26.40
2018-04-22T11:15:57.489Z,26.70
2018-04-22T11:18:26.281Z,26.70
2018-04-22T11:20:56.595Z,26.60
2018-04-22T11:23:25.332Z,26.50
2018-04-22T11:25:53.964Z,26.60
2018-04-22T11:28:24.445Z,26.80
2018-04-22T11:30:52.974Z,26.80
2018-04-22T11:33:21.554Z,26.90
2018-04-22T11:35:49.935Z,26.90
2018-04-22T11:38:19.003Z,27.00
2018-04-22T11:40:47.192Z,26.90
2018-04-22T11:43:15.390Z,27.10
2018-04-22T11:45:44.671Z,27.40
2018-04-22T11:48:13.354Z,27.40
2018-04-22T11:50:42.596Z,27.30
2018-04-22T11:53:11.076Z,27.20
2018-04-22T11:55:40.112Z,26.90
2018-04-22T11:58:08.586Z,26.90
2018-04-22T12:00:37.491Z,27.00
2018-04-22T12:03:06.657Z,27.10
2018-04-22T12:05:35.271Z,27.10
2018-04-22T12:08:03.949Z,27.40
2018-04-22T12:10:32.155Z,27.50
2018-04-22T12:13:01.230Z,27.80
2018-04-22T12:15:30.327Z,27.70
2018-04-22T12:17:59.185Z,27.50
2018-04-22T12:20:28.744Z,27.70
2018-04-22T12:22:57.218Z,27.70
2018-04-22T12:25:26.039Z,27.60
2018-04-22T12:27:54.612Z,27.70
2018-04-22T12:30:23.924Z,27.60
2018-04-22T12:32:52.220Z,27.50
2018-04-22T12:35:20.509Z,27.90
2018-04-22T12:37:49.488Z,27.70
2018-04-22T12:40:17.727Z,27.70
2018-04-22T12:42:47.207Z,27.80
2018-04-22T12:45:15.404Z,27.90
2018-04-22T12:47:44.628Z,28.20
2018-04-22T12:50:12.967Z,28.20
2018-04-22T12:52:41.188Z,28.40
2018-04-22T12:55:09.367Z,28.70
2018-04-22T12:57:37.559Z,28.50
2018-04-22T13:00:06.502Z,27.90
2018-04-22T13:02:35.504Z,27.90
2018-04-22T13:05:03.680Z,27.90
2018-04-22T13:07:31.859Z,28.00
2018-04-22T13:10:00.059Z,28.00
2018-04-22T13:12:29.222Z,28.10
2018-04-22T13:14:57.776Z,28.10
2018-04-22T13:17:26.761Z,28.20
2018-04-22T13:19:55.052Z,28.10
2018-04-22T13:22:23.236Z,28.30
2018-04-22T13:24:51.475Z,28.30
2018-04-22T13:27:19.832Z,28.20
2018-04-22T13:29:48.890Z,28.60
2018-04-22T13:32:17.103Z,28.60
2018-04-22T13:34:46.165Z,28.10
2018-04-22T13:37:14.437Z,28.10
2018-04-22T13:39:43.524Z,28.10
2018-04-22T13:42:12.620Z,28.30
2018-04-22T13:44:41.005Z,28.30
2018-04-22T13:47:09.159Z,28.30
2018-04-22T13:49:37.355Z,28.30
2018-04-22T13:52:05.528Z,28.60
2018-04-22T13:54:34.576Z,28.80
2018-04-22T13:57:04.727Z,28.80
2018-04-22T13:59:33.076Z,28.90
2018-04-22T14:02:01.349Z,28.90
2018-04-22T14:04:29.627Z,28.80
2018-04-22T14:06:57.807Z,28.60
2018-04-22T14:09:26.005Z,28.50
2018-04-22T14:11:55.112Z,28.50
2018-04-22T14:14:24.077Z,28.60
2018-04-22T14:16:53.062Z,28.60
2018-04-22T14:19:21.530Z,28.60
2018-04-22T14:21:49.841Z,28.60
2018-04-22T14:24:18.060Z,28.50
2018-04-22T14:26:46.262Z,28.20
2018-04-22T14:29:14.526Z,28.20
2018-04-22T14:31:42.779Z,28.40
2018-04-22T14:34:10.995Z,28.30
2018-04-22T14:36:39.974Z,28.20
2018-04-22T14:39:08.155Z,28.20
2018-04-22T14:41:37.269Z,28.10
2018-04-22T14:44:18.159Z,28.00
2018-04-22T14:46:46.582Z,28.00
2018-04-22T14:49:14.799Z,28.00
2018-04-22T14:51:43.764Z,27.80
2018-04-22T14:54:11.955Z,27.80
2018-04-22T14:56:40.224Z,27.80
2018-04-22T14:59:08.401Z,27.90
2018-04-22T15:01:37.374Z,27.80
2018-04-22T15:04:05.556Z,27.90
2018-04-22T15:06:33.778Z,27.80
2018-04-22T15:09:01.982Z,27.80
2018-04-22T15:11:30.170Z,27.70
2018-04-22T15:13:58.346Z,27.60
2018-04-22T15:16:26.693Z,27.70
2018-04-22T15:18:54.860Z,27.50
2018-04-22T15:21:23.055Z,27.50
2018-04-22T15:23:51.240Z,27.50
2018-04-22T15:26:19.439Z,27.50
2018-04-22T15:28:48.382Z,27.20
2018-04-22T15:31:16.652Z,27.20
2018-04-22T15:33:44.824Z,27.20
2018-04-22T15:36:13.020Z,27.20
2018-04-22T15:38:41.195Z,27.20
2018-04-22T15:41:09.391Z,27.00
2018-04-22T15:43:37.564Z,26.90
2018-04-22T15:46:05.951Z,26.70
2018-04-22T15:48:34.902Z,26.50
2018-04-22T15:51:03.133Z,26.50
2018-04-22T15:53:31.319Z,26.40
2018-04-22T15:55:59.596Z,26.50
2018-04-22T15:58:27.795Z,26.50
2018-04-22T16:00:55.963Z,26.50
2018-04-22T16:03:24.191Z,26.40
2018-04-22T16:05:53.136Z,26.30
2018-04-22T16:08:21.365Z,26.20
2018-04-22T16:10:50.310Z,26.10
2018-04-22T16:13:18.511Z,26.10
2018-04-22T16:15:46.732Z,26.10
2018-04-22T16:18:14.930Z,26.10
2018-04-22T16:20:43.143Z,25.90
2018-04-22T16:23:12.100Z,25.70
2018-04-22T16:25:41.271Z,25.70
2018-04-22T16:28:09.476Z,25.70
2018-04-22T16:30:37.664Z,25.70
2018-04-22T16:33:06.639Z,25.70
2018-04-22T16:35:35.027Z,25.70
2018-04-22T16:38:03.899Z,25.50
2018-04-22T16:40:32.080Z,25.60
2018-04-22T16:43:00.279Z,25.40
2018-04-22T16:45:28.493Z,25.30
2018-04-22T16:47:56.686Z,25.20
2018-04-22T16:50:24.876Z,25.10
2018-04-22T16:52:53.101Z,25.00
2018-04-22T16:55:21.415Z,24.90
2018-04-22T16:57:49.616Z,24.70
2018-04-22T17:00:17.829Z,24.60
2018-04-22T17:02:46.047Z,24.50
2018-04-22T17:05:14.255Z,24.50
2018-04-22T17:07:43.220Z,24.40
2018-04-22T17:10:11.423Z,24.30
2018-04-22T17:12:40.421Z,24.10
2018-04-22T17:15:08.590Z,24.10
2018-04-22T17:17:37.546Z,24.00
2018-04-22T17:20:05.744Z,24.00
2018-04-22T17:22:34.700Z,24.00
2018-04-22T17:25:02.918Z,24.00
2018-04-22T17:27:31.875Z,23.90
2018-04-22T17:30:00.084Z,23.90
2018-04-22T17:32:29.044Z,23.60
2018-04-22T17:34:57.343Z,23.50
2018-04-22T17:37:25.526Z,23.40
2018-04-22T17:39:54.528Z,23.10
2018-04-22T17:42:23.468Z,22.80
2018-04-22T17:44:51.753Z,22.80
2018-04-22T17:47:19.924Z,22.70
2018-04-22T17:49:48.122Z,22.50
2018-04-22T17:52:17.102Z,22.20
2018-04-22T17:54:45.356Z,22.20
2018-04-22T17:57:13.547Z,22.00
2018-04-22T17:59:41.776Z,21.90
2018-04-22T18:02:09.946Z,21.60
2018-04-22T18:04:38.254Z,21.50
2018-04-22T18:07:06.498Z,21.20
2018-04-22T18:09:34.668Z,21.10
2018-04-22T18:12:02.846Z,20.90
2018-04-22T18:14:31.329Z,20.90
2018-04-22T18:16:59.459Z,20.80
2018-04-22T18:19:27.672Z,20.60
2018-04-22T18:21:55.842Z,20.60
2018-04-22T18:24:24.059Z,20.50
2018-04-22T18:26:52.255Z,20.40
2018-04-22T18:29:20.501Z,20.30
2018-04-22T18:31:48.684Z,20.20
2018-04-22T18:34:16.888Z,20.00
2018-04-22T18:36:45.859Z,19.70
2018-04-22T18:39:14.056Z,19.60
2018-04-22T18:41:43.023Z,19.60
2018-04-22T18:44:11.224Z,19.50
2018-04-22T18:46:40.244Z,19.40
2018-04-22T18:49:08.461Z,19.40
2018-04-22T18:51:36.669Z,19.00
2018-04-22T18:54:04.888Z,18.90
2018-04-22T18:56:33.087Z,18.90
2018-04-22T18:59:01.280Z,18.90
2018-04-22T19:01:29.516Z,18.80
2018-04-22T19:03:57.698Z,18.80
2018-04-22T19:06:25.931Z,18.60
2018-04-22T19:08:54.114Z,18.50
2018-04-22T19:11:22.356Z,18.20
2018-04-22T19:13:50.524Z,18.20
2018-04-22T19:16:19.503Z,17.90
2018-04-22T19:18:48.462Z,18.00
2018-04-22T19:21:16.705Z,18.00
2018-04-22T19:23:44.912Z,17.90
2018-04-22T19:26:13.140Z,17.90
2018-04-22T19:28:42.094Z,17.50
2018-04-22T19:31:10.333Z,17.50
2018-04-22T19:33:38.537Z,17.40
2018-04-22T19:36:06.764Z,17.30
2018-04-22T19:38:34.950Z,17.40
2018-04-22T19:41:03.130Z,17.50
2018-04-22T19:43:32.172Z,17.50
2018-04-22T19:46:00.375Z,17.50
2018-04-22T19:48:29.347Z,17.40
2018-04-22T19:50:57.551Z,17.40
2018-04-22T19:53:25.758Z,17.20
2018-04-22T19:55:53.940Z,17.20
2018-04-22T19:58:22.167Z,17.00
2018-04-22T20:00:51.111Z,16.70
2018-04-22T20:03:19.322Z,16.70
2018-04-22T20:05:48.289Z,16.90
2018-04-22T20:08:16.490Z,16.80
2018-04-22T20:10:45.509Z,16.50
2018-04-22T20:13:13.716Z,16.50
2018-04-22T20:15:41.904Z,16.60
2018-04-22T20:18:10.891Z,16.60
2018-04-22T20:20:39.919Z,16.60
2018-04-22T20:23:08.131Z,16.60
2018-04-22T20:25:36.344Z,16.60
2018-04-22T20:28:04.546Z,16.50
2018-04-22T20:30:33.491Z,16.40
2018-04-22T20:33:01.795Z,16.40
2018-04-22T20:35:29.979Z,16.40
2018-04-22T20:37:58.946Z,16.30
2018-04-22T20:40:27.138Z,16.20
2018-04-22T20:42:55.339Z,16.30
2018-04-22T20:45:24.303Z,16.20
2018-04-22T20:47:52.504Z,16.20
2018-04-22T20:50:20.711Z,16.30
2018-04-22T20:52:48.944Z,16.20
2018-04-22T20:55:17.902Z,16.20
2018-04-22T20:57:46.107Z,16.20
2018-04-22T21:00:15.047Z,16.10
2018-04-22T21:02:43.508Z,16.10
2018-04-22T21:05:11.708Z,16.20
2018-04-22T21:07:39.899Z,16.10
2018-04-22T21:10:08.111Z,16.10
2018-04-22T21:12:36.415Z,16.10
2018-04-22T21:15:04.604Z,16.00
2018-04-22T21:17:32.806Z,15.90
2018-04-22T21:20:00.999Z,16.10
2018-04-22T21:22:29.203Z,16.20
2018-04-22T21:24:57.422Z,16.10
2018-04-22T21:27:25.603Z,15.90
2018-04-22T21:29:53.821Z,15.70
2018-04-22T21:32:22.108Z,15.70
2018-04-22T21:34:50.320Z,15.70
2018-04-22T21:37:18.508Z,15.60
2018-04-22T21:39:48.217Z,15.50
2018-04-22T21:42:16.451Z,15.60
2018-04-22T21:44:44.651Z,15.60
2018-04-22T21:47:12.828Z,15.50
2018-04-22T21:49:42.653Z,15.40
2018-04-22T21:52:10.907Z,15.40
2018-04-22T21:54:39.111Z,15.20
2018-04-22T21:57:08.052Z,15.20
2018-04-22T21:59:36.256Z,15.20
2018-04-22T22:02:05.016Z,15.20
2018-04-22T22:04:33.243Z,15.10
2018-04-22T22:07:02.195Z,15.00
2018-04-22T22:09:30.423Z,15.10
2018-04-22T22:11:58.700Z,15.00
2018-04-22T22:14:26.903Z,14.90
2018-04-22T22:16:55.124Z,14.90
2018-04-22T22:19:24.066Z,14.70
2018-04-22T22:21:52.353Z,14.70
2018-04-22T22:24:20.534Z,14.40
2018-04-22T22:26:48.727Z,14.70
2018-04-22T22:29:16.930Z,14.60
2018-04-22T22:31:45.212Z,14.30
2018-04-22T22:34:14.152Z,14.60
2018-04-22T22:36:42.358Z,14.60
2018-04-22T22:39:11.317Z,14.50
2018-04-22T22:41:39.515Z,14.50
2018-04-22T22:44:07.714Z,14.40
2018-04-22T22:46:36.679Z,14.30
2018-04-22T22:49:04.876Z,14.30
2018-04-22T22:51:33.860Z,14.40
2018-04-22T22:54:02.028Z,14.40
2018-04-22T22:56:31.007Z,14.50
2018-04-22T22:58:59.199Z,14.50
2018-04-22T23:01:27.640Z,14.40
2018-04-22T23:03:55.815Z,14.30
2018-04-22T23:06:24.016Z,14.20
2018-04-22T23:08:52.210Z,14.20
2018-04-22T23:11:20.564Z,14.10
2018-04-22T23:13:48.735Z,14.00
2018-04-22T23:16:16.929Z,14.00
2018-04-22T23:18:45.102Z,13.90
2018-04-22T23:21:13.360Z,13.90
2018-04-22T23:23:41.561Z,13.70
2018-04-22T23:26:11.038Z,13.80
2018-04-22T23:28:40.726Z,13.90
2018-04-22T23:31:08.996Z,13.90
2018-04-22T23:33:37.215Z,13.90
2018-04-22T23:36:06.195Z,13.40
2018-04-22T23:38:34.393Z,13.40
2018-04-22T23:41:03.379Z,13.40
2018-04-22T23:43:31.592Z,13.40
2018-04-22T23:45:59.756Z,13.30
2018-04-22T23:48:27.951Z,13.30
2018-04-22T23:50:56.215Z,13.30
2018-04-22T23:53:24.415Z,13.30
2018-04-22T23:55:52.760Z,13.50
2018-04-22T23:58:20.970Z,13.50
